Baglung Airport


Codes: VNBL/BGL
Name: Baglung Airport
City: Baglung
Country: Nepal
Elevation: 3320 ft.

Photos at Baglung Airport


   Photos courtesy of SpottingLog. You can add your own sightings and photos by signing up for a free trial today.



No photos found.

Weather at Baglung Airport


Time (UTC)DescriptionTempratureWindCloud coverageVisibilityPressureHumidity
19-Apr-2024 03:00Clear Sky28°C4 mph, SE0%10000m1006hPa17%
19-Apr-2024 06:00Clear Sky30°C7 mph, S0%10000m1005hPa15%
19-Apr-2024 09:00Few Clouds33°C9 mph, S13%10000m1002hPa13%
19-Apr-2024 12:00Scattered Clouds32°C2 mph, S49%10000m999hPa15%
19-Apr-2024 15:00Clear Sky23°C7 mph, NW6%10000m1004hPa25%
19-Apr-2024 18:00Clear Sky22°C9 mph, NW4%10000m1005hPa26%
19-Apr-2024 21:00Clear Sky21°C9 mph, NW0%10000m1004hPa28%
20-Apr-2024 00:00Clear Sky20°C9 mph, NW0%10000m1005hPa29%
20-Apr-2024 03:00Clear Sky31°C2 mph, SW0%10000m1004hPa18%
20-Apr-2024 06:00Clear Sky35°C7 mph, S1%10000m1002hPa10%
20-Apr-2024 09:00Few Clouds36°C16 mph, SW18%10000m999hPa6%
20-Apr-2024 12:00Clear Sky31°C9 mph, SW10%10000m1000hPa11%
20-Apr-2024 15:00Broken Clouds22°C9 mph, NW55%10000m1005hPa20%
20-Apr-2024 18:00Broken Clouds21°C7 mph, NW77%10000m1005hPa20%
20-Apr-2024 21:00Broken Clouds20°C7 mph, NW83%10000m1005hPa21%
21-Apr-2024 00:00Overcast Clouds20°C7 mph, NW89%10000m1006hPa21%
21-Apr-2024 03:00Scattered Clouds31°C2 mph, SW37%10000m1006hPa12%
21-Apr-2024 06:00Few Clouds34°C7 mph, S24%10000m1004hPa9%
21-Apr-2024 09:00Scattered Clouds36°C7 mph, S42%10000m1001hPa7%
21-Apr-2024 12:00Broken Clouds32°C7 mph, SW70%10000m1001hPa10%
21-Apr-2024 15:00Overcast Clouds23°C7 mph, NW100%10000m1007hPa18%
21-Apr-2024 18:00Overcast Clouds22°C7 mph, NW100%10000m1007hPa18%
21-Apr-2024 21:00Overcast Clouds22°C7 mph, NW98%10000m1006hPa18%
22-Apr-2024 00:00Overcast Clouds21°C7 mph, NW99%10000m1007hPa18%
22-Apr-2024 03:00Overcast Clouds31°C2 mph, SW100%10000m1007hPa11%
22-Apr-2024 06:00Overcast Clouds35°C7 mph, S100%10000m1005hPa9%
22-Apr-2024 09:00Overcast Clouds36°C9 mph, S88%10000m1002hPa9%
22-Apr-2024 12:00Overcast Clouds30°C4 mph, NW92%10000m1005hPa15%
22-Apr-2024 15:00Overcast Clouds25°C2 mph, NE100%10000m1008hPa20%
22-Apr-2024 18:00Broken Clouds22°C7 mph, NW69%10000m1009hPa26%
22-Apr-2024 21:00Clear Sky21°C7 mph, NW3%10000m1007hPa27%
23-Apr-2024 00:00Clear Sky20°C9 mph, NW2%10000m1008hPa26%
23-Apr-2024 03:00Clear Sky32°C2 mph, SW0%10000m1006hPa14%
23-Apr-2024 06:00Clear Sky35°C7 mph, S1%10000m1004hPa10%
23-Apr-2024 09:00Scattered Clouds35°C11 mph, SW38%10000m1001hPa10%
23-Apr-2024 12:00Scattered Clouds32°C9 mph, SW36%10000m1001hPa12%
23-Apr-2024 15:00Scattered Clouds23°C7 mph, NW36%10000m1007hPa22%
23-Apr-2024 18:00Scattered Clouds22°C7 mph, NW33%10000m1007hPa23%
23-Apr-2024 21:00Few Clouds21°C9 mph, NW12%10000m1006hPa24%
24-Apr-2024 00:00Clear Sky20°C9 mph, NW7%10000m1006hPa25%